createdAt,value
2023-02-11T00:01:08.193Z,-2.73
2023-02-11T00:03:37.340Z,-2.71
2023-02-11T00:06:09.336Z,-2.73
2023-02-11T00:08:39.433Z,-2.69
2023-02-11T00:11:07.852Z,-2.73
2023-02-11T00:13:35.980Z,-2.86
2023-02-11T00:16:08.885Z,-2.82
2023-02-11T00:18:37.534Z,-2.85
2023-02-11T00:21:09.815Z,-2.86
2023-02-11T00:23:39.464Z,-2.86
2023-02-11T00:26:14.370Z,-2.83
2023-02-11T00:28:42.497Z,-2.90
2023-02-11T00:31:10.950Z,-2.80
2023-02-11T00:33:39.293Z,-2.84
2023-02-11T00:36:13.405Z,-2.86
2023-02-11T00:38:44.573Z,-3.00
2023-02-11T00:41:13.169Z,-2.90
2023-02-11T00:43:41.811Z,-2.92
2023-02-11T00:46:10.826Z,-2.96
2023-02-11T00:48:39.201Z,-3.74
2023-02-11T00:51:08.006Z,-3.04
2023-02-11T00:53:36.302Z,-3.16
2023-02-11T00:56:06.818Z,-3.04
2023-02-11T00:58:35.060Z,-3.03
2023-02-11T01:01:03.660Z,-3.01
2023-02-11T01:03:32.124Z,-2.94
2023-02-11T01:06:00.374Z,-3.16
2023-02-11T01:08:29.114Z,-3.01
2023-02-11T01:10:59.888Z,-3.03
2023-02-11T01:13:30.474Z,-3.24
2023-02-11T01:15:58.771Z,-3.06
2023-02-11T01:18:27.258Z,-3.13
2023-02-11T01:20:55.538Z,-3.15
2023-02-11T01:23:23.697Z,-3.16
2023-02-11T01:25:52.422Z,-3.18
2023-02-11T01:28:22.704Z,-3.10
2023-02-11T01:30:52.628Z,-3.05
2023-02-11T01:33:21.108Z,-3.13
2023-02-11T01:35:49.714Z,-3.17
2023-02-11T01:38:20.233Z,-3.23
2023-02-11T01:40:49.849Z,-3.26
2023-02-11T01:43:18.168Z,-3.19
2023-02-11T01:46:00.868Z,-3.15
2023-02-11T01:48:31.984Z,-3.34
2023-02-11T01:51:04.207Z,-3.14
2023-02-11T01:53:51.237Z,-3.15
2023-02-11T01:56:38.869Z,-3.20
2023-02-11T01:59:14.819Z,-3.19
2023-02-11T02:01:50.372Z,-3.35
2023-02-11T02:04:20.574Z,-3.38
2023-02-11T02:06:56.063Z,-3.45
2023-02-11T02:09:26.937Z,-3.53
2023-02-11T02:11:55.502Z,-3.59
2023-02-11T02:14:23.710Z,-3.43
2023-02-11T02:16:53.440Z,-3.43
2023-02-11T02:20:03.210Z,-3.43
2023-02-11T02:23:00.882Z,-3.50
2023-02-11T02:25:54.787Z,-3.47
2023-02-11T02:28:52.125Z,-3.88
2023-02-11T02:31:38.656Z,-3.47
2023-02-11T02:34:16.237Z,-3.58
2023-02-11T02:36:53.280Z,-3.58
2023-02-11T02:39:25.600Z,-3.61
2023-02-11T02:41:56.766Z,-3.61
2023-02-11T02:44:25.434Z,-3.61
2023-02-11T02:46:53.604Z,-3.60
2023-02-11T02:49:23.333Z,-3.83
2023-02-11T02:52:08.499Z,-3.66
2023-02-11T02:55:10.164Z,-3.60
2023-02-11T02:57:50.255Z,-3.60
2023-02-11T03:00:26.427Z,-3.67
2023-02-11T03:03:06.885Z,-3.61
2023-02-11T03:05:49.314Z,-3.66
2023-02-11T03:08:24.402Z,-3.73
2023-02-11T03:10:54.825Z,-3.91
2023-02-11T03:13:28.194Z,-3.88
2023-02-11T03:15:59.171Z,-3.87
2023-02-11T03:18:30.199Z,-3.88
2023-02-11T03:21:01.283Z,-3.97
2023-02-11T03:23:32.186Z,-3.93
2023-02-11T03:26:05.284Z,-4.02
2023-02-11T03:28:40.401Z,-3.94
2023-02-11T03:31:13.863Z,-3.82
2023-02-11T03:33:52.268Z,-3.89
2023-02-11T03:36:28.336Z,-4.10
2023-02-11T03:38:59.924Z,-4.33
2023-02-11T03:41:28.150Z,-3.94
2023-02-11T03:43:58.977Z,-3.90
2023-02-11T03:46:32.654Z,-3.99
2023-02-11T03:49:06.027Z,-4.02
2023-02-11T03:51:37.911Z,-4.73
2023-02-11T03:54:12.206Z,-4.10
2023-02-11T03:56:46.056Z,-4.09
2023-02-11T03:59:14.258Z,-4.11
2023-02-11T04:01:42.467Z,-4.08
2023-02-11T04:04:10.786Z,-4.16
2023-02-11T04:06:40.426Z,-4.79
2023-02-11T04:09:09.016Z,-4.25
2023-02-11T04:11:37.112Z,-4.47
2023-02-11T04:14:05.478Z,-4.18
2023-02-11T04:16:33.619Z,-4.20
2023-02-11T04:19:02.072Z,-4.19
2023-02-11T04:21:30.267Z,-4.23
2023-02-11T04:23:59.812Z,-4.18
2023-02-11T04:26:27.944Z,-4.12
2023-02-11T04:28:56.054Z,-4.10
2023-02-11T04:31:24.392Z,-4.42
2023-02-11T04:33:52.570Z,-5.09
2023-02-11T04:36:20.684Z,-4.26
2023-02-11T04:38:48.809Z,-4.16
2023-02-11T04:41:18.313Z,-4.41
2023-02-11T04:43:46.451Z,-4.53
2023-02-11T04:46:14.612Z,-4.30
2023-02-11T04:48:42.751Z,-4.30
2023-02-11T04:51:10.915Z,-4.32
2023-02-11T04:53:39.045Z,-4.70
2023-02-11T04:56:07.518Z,-4.39
2023-02-11T04:58:37.096Z,-4.44
2023-02-11T05:01:09.103Z,-4.49
2023-02-11T05:03:37.375Z,-4.72
2023-02-11T05:06:06.420Z,-4.39
2023-02-11T05:08:34.680Z,-4.42
2023-02-11T05:11:03.235Z,-4.36
2023-02-11T05:13:31.666Z,-4.33
2023-02-11T05:16:01.413Z,-4.26
2023-02-11T05:18:29.560Z,-4.44
2023-02-11T05:20:57.776Z,-4.55
2023-02-11T05:23:25.925Z,-4.58
2023-02-11T05:25:54.137Z,-4.54
2023-02-11T05:28:22.290Z,-5.60
2023-02-11T05:30:50.431Z,-4.51
2023-02-11T05:33:20.081Z,-4.66
2023-02-11T05:35:48.441Z,-4.67
2023-02-11T05:38:16.824Z,-4.46
2023-02-11T05:40:45.389Z,-4.45
2023-02-11T05:43:13.545Z,-4.38
2023-02-11T05:45:41.684Z,-4.35
2023-02-11T05:48:10.054Z,-4.35
2023-02-11T05:50:39.652Z,-4.53
2023-02-11T05:53:08.129Z,-4.52
2023-02-11T05:55:36.486Z,-4.59
2023-02-11T05:58:04.902Z,-4.59
2023-02-11T06:00:33.024Z,-4.54
2023-02-11T06:03:01.261Z,-4.64
2023-02-11T06:05:29.369Z,-4.47
2023-02-11T06:07:59.262Z,-4.57
2023-02-11T06:10:27.435Z,-4.82
2023-02-11T06:12:55.571Z,-4.60
2023-02-11T06:15:23.694Z,-4.57
2023-02-11T06:17:51.861Z,-4.52
2023-02-11T06:20:20.053Z,-4.31
2023-02-11T06:22:48.359Z,-4.27
2023-02-11T06:25:17.895Z,-4.18
2023-02-11T06:27:45.995Z,-4.35
2023-02-11T06:30:15.056Z,-4.14
2023-02-11T06:32:45.242Z,-4.20
2023-02-11T06:35:14.480Z,-4.37
2023-02-11T06:37:43.359Z,-3.85
2023-02-11T06:40:12.685Z,-4.89
2023-02-11T06:42:42.927Z,-3.65
2023-02-11T06:45:13.314Z,-3.64
2023-02-11T06:47:42.132Z,-3.62
2023-02-11T06:50:13.892Z,-3.42
2023-02-11T06:52:42.473Z,-3.28
2023-02-11T06:55:10.665Z,-3.16
2023-02-11T06:57:38.843Z,-3.22
2023-02-11T07:00:10.286Z,-3.29
2023-02-11T07:02:38.424Z,-3.43
2023-02-11T07:05:07.930Z,-3.21
2023-02-11T07:07:36.232Z,-3.37
2023-02-11T07:10:05.944Z,-2.95
2023-02-11T07:12:34.188Z,-2.88
2023-02-11T07:15:02.761Z,-3.14
2023-02-11T07:17:32.267Z,-2.72
2023-02-11T07:20:00.371Z,-2.83
2023-02-11T07:22:28.853Z,-2.85
2023-02-11T07:24:56.996Z,-2.83
2023-02-11T07:27:25.142Z,-2.82
2023-02-11T07:29:53.223Z,-2.68
2023-02-11T07:32:21.903Z,-2.62
2023-02-11T07:34:51.565Z,-2.57
2023-02-11T07:37:19.920Z,-2.49
2023-02-11T07:39:48.090Z,-2.43
2023-02-11T07:42:16.617Z,-2.30
2023-02-11T07:44:45.064Z,-2.11
2023-02-11T07:47:14.880Z,-2.31
2023-02-11T07:49:43.087Z,-1.78
2023-02-11T07:52:12.710Z,-2.61
2023-02-11T07:54:40.884Z,-1.53
2023-02-11T07:57:09.057Z,-1.43
2023-02-11T07:59:37.195Z,-1.37
2023-02-11T08:02:05.368Z,-1.29
2023-02-11T08:04:33.540Z,-1.20
2023-02-11T08:07:01.694Z,-1.53
2023-02-11T08:09:33.463Z,-1.24
2023-02-11T08:12:02.897Z,-1.26
2023-02-11T08:14:32.857Z,-1.27
2023-02-11T08:17:00.951Z,-1.18
2023-02-11T08:19:29.119Z,-1.05
2023-02-11T08:21:58.533Z,-1.26
2023-02-11T08:24:26.662Z,-0.61
2023-02-11T08:26:56.355Z,-1.69
2023-02-11T08:29:24.541Z,-0.53
2023-02-11T08:31:52.737Z,-0.59
2023-02-11T08:34:21.138Z,-0.37
2023-02-11T08:36:49.799Z,-0.28
2023-02-11T08:39:20.755Z,-0.40
2023-02-11T08:41:50.673Z,0.16
2023-02-11T08:44:20.764Z,0.38
2023-02-11T08:46:49.808Z,0.61
2023-02-11T08:49:18.202Z,0.77
2023-02-11T08:51:47.310Z,0.87
2023-02-11T08:54:16.433Z,1.03
2023-02-11T08:56:45.195Z,1.20
2023-02-11T08:59:17.886Z,1.07
2023-02-11T09:01:47.922Z,1.28
2023-02-11T09:04:16.196Z,1.29
2023-02-11T09:06:44.715Z,1.32
2023-02-11T09:09:14.767Z,1.58
2023-02-11T09:11:44.414Z,1.59
2023-02-11T09:14:19.584Z,1.40
2023-02-11T09:16:49.923Z,1.49
2023-02-11T09:19:19.077Z,1.36
2023-02-11T09:21:47.707Z,1.55
2023-02-11T09:24:15.844Z,1.61
2023-02-11T09:26:44.690Z,1.56
2023-02-11T09:29:13.067Z,1.62
2023-02-11T09:31:41.327Z,1.71
2023-02-11T09:34:12.854Z,1.79
2023-02-11T09:36:42.282Z,2.24
2023-02-11T09:39:14.536Z,2.35
2023-02-11T09:42:22.066Z,2.47
2023-02-11T09:44:51.039Z,2.55
2023-02-11T09:47:26.926Z,2.50
2023-02-11T09:50:01.386Z,2.27
2023-02-11T09:52:38.546Z,2.11
2023-02-11T09:55:18.655Z,2.09
2023-02-11T09:57:46.871Z,2.17
2023-02-11T10:00:22.250Z,2.24
2023-02-11T10:03:26.306Z,2.33
2023-02-11T10:06:15.930Z,2.64
2023-02-11T10:08:57.947Z,2.84
2023-02-11T10:11:33.726Z,3.08
2023-02-11T10:14:12.922Z,3.24
2023-02-11T10:16:56.089Z,3.36
2023-02-11T10:19:37.567Z,3.28
2023-02-11T10:22:13.564Z,3.31
2023-02-11T10:24:45.473Z,3.33
2023-02-11T10:27:19.158Z,3.65
2023-02-11T10:29:53.717Z,3.77
2023-02-11T10:32:32.184Z,3.82
2023-02-11T10:35:05.064Z,3.42
2023-02-11T10:37:34.663Z,3.88
2023-02-11T10:40:02.741Z,4.13
2023-02-11T10:42:31.687Z,4.14
2023-02-11T10:45:03.782Z,4.31
2023-02-11T10:47:37.678Z,4.53
2023-02-11T10:50:20.460Z,4.80
2023-02-11T10:52:50.317Z,4.69
2023-02-11T10:55:21.049Z,4.73
2023-02-11T10:57:56.913Z,4.92
2023-02-11T11:00:34.322Z,4.41
2023-02-11T11:03:03.920Z,5.22
2023-02-11T11:05:34.331Z,5.34
2023-02-11T11:08:06.882Z,5.50
2023-02-11T11:10:44.470Z,5.63
2023-02-11T11:13:29.994Z,5.52
2023-02-11T11:16:26.569Z,5.59
2023-02-11T11:19:15.359Z,5.60
2023-02-11T11:21:45.100Z,5.71
2023-02-11T11:24:20.938Z,5.83
2023-02-11T11:26:51.092Z,5.77
2023-02-11T11:29:21.724Z,5.55
2023-02-11T11:31:53.415Z,5.26
2023-02-11T11:34:28.140Z,5.34
2023-02-11T11:36:57.592Z,5.39
2023-02-11T11:39:31.034Z,5.53
2023-02-11T11:42:01.232Z,5.60
2023-02-11T11:44:32.702Z,5.64
2023-02-11T11:47:21.985Z,5.65
2023-02-11T11:49:58.025Z,5.19
2023-02-11T11:52:36.821Z,6.32
2023-02-11T11:55:13.217Z,6.45
2023-02-11T11:57:41.847Z,6.32
2023-02-11T12:00:18.148Z,6.89
2023-02-11T12:03:25.059Z,7.05
2023-02-11T12:06:05.616Z,7.31
2023-02-11T12:08:44.086Z,7.36
2023-02-11T12:11:25.346Z,7.13
2023-02-11T12:14:09.741Z,7.89
2023-02-11T12:16:49.114Z,7.26
2023-02-11T12:19:42.288Z,8.14
2023-02-11T12:22:13.612Z,8.22
2023-02-11T12:24:57.726Z,8.37
2023-02-11T12:27:41.198Z,8.45
2023-02-11T12:30:23.232Z,8.52
2023-02-11T12:33:02.088Z,8.81
2023-02-11T12:35:37.287Z,9.15
2023-02-11T12:38:32.415Z,9.31
2023-02-11T12:41:19.120Z,9.19
2023-02-11T12:43:47.708Z,8.94
2023-02-11T12:46:36.017Z,8.34
2023-02-11T12:49:34.134Z,8.86
2023-02-11T12:52:24.827Z,8.78
2023-02-11T12:54:59.485Z,8.83
2023-02-11T12:57:29.747Z,9.28
2023-02-11T13:00:06.140Z,9.29
2023-02-11T13:02:48.833Z,9.90
2023-02-11T13:05:26.468Z,10.01
2023-02-11T13:08:05.182Z,10.25
2023-02-11T13:10:37.045Z,10.45
2023-02-11T13:13:20.442Z,10.62
2023-02-11T13:15:55.285Z,10.62
2023-02-11T13:18:48.308Z,10.71
2023-02-11T13:21:46.680Z,10.86
2023-02-11T13:24:23.620Z,11.26
2023-02-11T13:27:01.701Z,11.57
2023-02-11T13:29:44.065Z,11.86
2023-02-11T13:32:15.925Z,12.10
2023-02-11T13:34:59.039Z,12.41
2023-02-11T13:37:32.119Z,12.76
2023-02-11T13:40:02.799Z,12.99
2023-02-11T13:42:32.400Z,12.63
2023-02-11T13:45:00.826Z,12.22
2023-02-11T13:47:34.185Z,11.86
2023-02-11T13:50:06.957Z,11.27
2023-02-11T13:52:38.082Z,10.81
2023-02-11T13:55:16.099Z,10.79
2023-02-11T13:57:44.320Z,10.47
2023-02-11T14:00:48.883Z,10.25
2023-02-11T14:03:57.574Z,10.06
2023-02-11T14:06:46.100Z,9.96
2023-02-11T14:09:38.280Z,10.03
2023-02-11T14:12:26.413Z,10.36
2023-02-11T14:15:06.010Z,10.60
2023-02-11T14:17:36.007Z,10.45
2023-02-11T14:20:26.719Z,10.38
2023-02-11T14:22:55.242Z,10.82
2023-02-11T14:25:26.485Z,11.10
2023-02-11T14:27:57.434Z,11.10
2023-02-11T14:30:36.165Z,10.79
2023-02-11T14:33:21.769Z,10.49
2023-02-11T14:36:02.023Z,9.99
2023-02-11T14:38:39.747Z,9.71
2023-02-11T14:41:12.121Z,9.44
2023-02-11T14:43:43.324Z,9.16
2023-02-11T14:46:11.616Z,9.05
2023-02-11T14:48:44.598Z,9.20
2023-02-11T14:51:17.717Z,9.40
2023-02-11T14:53:49.224Z,9.44
2023-02-11T14:56:22.862Z,9.40
2023-02-11T14:58:51.988Z,9.24
2023-02-11T15:01:30.244Z,9.06
2023-02-11T15:04:00.622Z,9.09
2023-02-11T15:06:33.204Z,8.89
2023-02-11T15:09:05.286Z,8.68
2023-02-11T15:11:36.388Z,8.50
2023-02-11T15:14:10.964Z,8.30
2023-02-11T15:16:44.168Z,8.09
2023-02-11T15:19:22.554Z,7.72
2023-02-11T15:21:53.755Z,8.01
2023-02-11T15:24:25.820Z,8.03
2023-02-11T15:27:02.059Z,7.73
2023-02-11T15:29:37.135Z,7.50
2023-02-11T15:32:13.727Z,7.51
2023-02-11T15:34:42.410Z,7.33
2023-02-11T15:37:15.766Z,7.18
2023-02-11T15:39:44.928Z,7.07
2023-02-11T15:42:22.547Z,6.98
2023-02-11T15:45:08.649Z,6.80
2023-02-11T15:47:37.264Z,6.89
2023-02-11T15:50:06.964Z,6.88
2023-02-11T15:52:37.075Z,6.90
2023-02-11T15:55:06.768Z,6.83
2023-02-11T15:57:36.917Z,6.64
2023-02-11T16:00:07.581Z,6.54
2023-02-11T16:02:45.827Z,6.50
2023-02-11T16:05:29.593Z,5.46
2023-02-11T16:08:00.412Z,6.23
2023-02-11T16:10:32.054Z,6.05
2023-02-11T16:13:20.344Z,6.10
2023-02-11T16:15:52.781Z,5.97
2023-02-11T16:18:38.311Z,5.95
2023-02-11T16:21:14.876Z,6.01
2023-02-11T16:23:50.708Z,5.80
2023-02-11T16:26:26.528Z,5.66
2023-02-11T16:28:55.278Z,5.58
2023-02-11T16:31:23.884Z,5.41
2023-02-11T16:33:52.298Z,5.29
2023-02-11T16:36:20.474Z,5.10
2023-02-11T16:38:50.109Z,4.78
2023-02-11T16:41:18.255Z,5.13
2023-02-11T16:43:46.592Z,5.04
2023-02-11T16:46:17.035Z,5.08
2023-02-11T16:48:45.820Z,4.81
2023-02-11T16:51:14.448Z,4.68
2023-02-11T16:53:42.660Z,4.44
2023-02-11T16:56:17.191Z,4.35
2023-02-11T16:58:46.585Z,4.43
2023-02-11T17:01:14.852Z,4.45
2023-02-11T17:03:43.843Z,4.51
2023-02-11T17:06:13.690Z,4.39
2023-02-11T17:08:42.664Z,4.12
2023-02-11T17:11:10.890Z,3.84
2023-02-11T17:13:42.053Z,3.51
2023-02-11T17:16:17.232Z,3.78
2023-02-11T17:18:45.502Z,3.74
2023-02-11T17:21:13.887Z,3.64
2023-02-11T17:23:42.607Z,3.71
2023-02-11T17:26:10.887Z,3.72
2023-02-11T17:28:40.538Z,3.01
2023-02-11T17:31:10.445Z,3.63
2023-02-11T17:33:39.112Z,3.27
2023-02-11T17:36:08.842Z,2.58
2023-02-11T17:38:38.370Z,3.32
2023-02-11T17:41:07.096Z,3.39
2023-02-11T17:43:35.393Z,3.57
2023-02-11T17:46:07.612Z,3.32
2023-02-11T17:48:36.174Z,3.40
2023-02-11T17:51:04.391Z,3.39
2023-02-11T17:53:32.770Z,3.35
2023-02-11T17:56:06.378Z,3.40
2023-02-11T17:58:34.795Z,3.48
2023-02-11T18:01:04.441Z,3.50
2023-02-11T18:03:33.177Z,3.51
2023-02-11T18:06:02.165Z,3.62
2023-02-11T18:08:30.701Z,2.16
2023-02-11T18:10:58.874Z,3.64
2023-02-11T18:13:27.368Z,3.68
2023-02-11T18:15:55.843Z,3.64
2023-02-11T18:18:25.430Z,3.47
2023-02-11T18:20:58.048Z,3.34
2023-02-11T18:23:26.282Z,3.21
2023-02-11T18:25:54.536Z,3.04
2023-02-11T18:28:23.284Z,2.95
2023-02-11T18:30:58.612Z,3.13
2023-02-11T18:33:28.612Z,3.03
2023-02-11T18:35:56.917Z,3.12
2023-02-11T18:38:26.289Z,2.89
2023-02-11T18:40:54.566Z,3.19
2023-02-11T18:43:22.803Z,3.23
2023-02-11T18:45:52.073Z,3.03
2023-02-11T18:48:20.470Z,3.15
2023-02-11T18:50:50.110Z,2.78
2023-02-11T18:53:18.244Z,3.11
2023-02-11T18:55:47.273Z,3.13
2023-02-11T18:58:15.819Z,3.11
2023-02-11T19:00:46.343Z,3.17
2023-02-11T19:03:14.583Z,2.94
2023-02-11T19:05:43.498Z,2.90
2023-02-11T19:08:13.608Z,2.87
2023-02-11T19:10:42.989Z,3.05
2023-02-11T19:13:11.618Z,3.06
2023-02-11T19:15:42.740Z,2.68
2023-02-11T19:18:11.068Z,2.88
2023-02-11T19:20:40.615Z,2.79
2023-02-11T19:23:08.903Z,1.86
2023-02-11T19:25:39.180Z,2.61
2023-02-11T19:28:07.578Z,2.53
2023-02-11T19:30:37.841Z,2.54
2023-02-11T19:33:08.907Z,2.53
2023-02-11T19:35:38.178Z,2.44
2023-02-11T19:38:06.773Z,2.48
2023-02-11T19:40:35.010Z,2.12
2023-02-11T19:43:04.593Z,1.57
2023-02-11T19:45:32.934Z,2.28
2023-02-11T19:48:01.426Z,2.37
2023-02-11T19:50:29.611Z,2.32
2023-02-11T19:52:58.024Z,2.28
2023-02-11T19:55:26.204Z,2.34
2023-02-11T19:57:54.414Z,1.87
2023-02-11T20:00:24.227Z,2.17
2023-02-11T20:02:52.503Z,2.10
2023-02-11T20:05:20.767Z,2.03
2023-02-11T20:07:49.052Z,2.06
2023-02-11T20:10:17.703Z,2.05
2023-02-11T20:12:46.182Z,2.00
2023-02-11T20:15:14.724Z,1.93
2023-02-11T20:17:44.575Z,1.85
2023-02-11T20:20:13.339Z,1.92
2023-02-11T20:22:41.648Z,1.91
2023-02-11T20:25:11.149Z,1.93
2023-02-11T20:27:39.700Z,2.03
2023-02-11T20:30:09.314Z,1.85
2023-02-11T20:32:38.621Z,1.10
2023-02-11T20:35:11.509Z,1.60
2023-02-11T20:37:42.278Z,1.37
2023-02-11T20:40:13.109Z,1.66
2023-02-11T20:42:41.447Z,1.51
2023-02-11T20:45:10.507Z,1.44
2023-02-11T20:47:38.982Z,1.72
2023-02-11T20:50:10.408Z,1.47
2023-02-11T20:52:38.621Z,1.45
2023-02-11T20:55:07.178Z,1.32
2023-02-11T20:57:35.921Z,1.25
2023-02-11T21:00:05.018Z,1.67
2023-02-11T21:02:33.405Z,1.74
2023-02-11T21:05:01.829Z,1.58
2023-02-11T21:07:31.584Z,1.52
2023-02-11T21:10:00.163Z,1.57
2023-02-11T21:12:28.659Z,1.60
2023-02-11T21:14:58.112Z,1.67
2023-02-11T21:17:27.871Z,1.44
2023-02-11T21:19:56.053Z,1.55
2023-02-11T21:22:24.624Z,1.49
2023-02-11T21:24:54.640Z,1.41
2023-02-11T21:27:23.754Z,1.29
2023-02-11T21:29:54.644Z,1.35
2023-02-11T21:32:23.241Z,1.39
2023-02-11T21:34:55.229Z,1.38
2023-02-11T21:37:24.070Z,1.37
2023-02-11T21:39:53.686Z,1.40
2023-02-11T21:42:21.789Z,1.45
2023-02-11T21:44:49.987Z,1.41
2023-02-11T21:47:18.162Z,1.24
2023-02-11T21:49:46.419Z,1.45
2023-02-11T21:52:14.679Z,1.42
2023-02-11T21:54:42.777Z,1.40
2023-02-11T21:57:12.386Z,1.34
2023-02-11T21:59:40.653Z,1.35
2023-02-11T22:02:10.582Z,1.24
2023-02-11T22:04:38.736Z,1.23
2023-02-11T22:07:06.908Z,1.30
2023-02-11T22:09:35.197Z,1.32
2023-02-11T22:12:03.317Z,1.20
2023-02-11T22:14:32.970Z,1.34
2023-02-11T22:17:01.223Z,1.46
2023-02-11T22:19:29.384Z,1.46
2023-02-11T22:21:57.580Z,1.33
2023-02-11T22:24:25.748Z,1.36
2023-02-11T22:26:53.905Z,1.37
2023-02-11T22:29:22.094Z,1.18
2023-02-11T22:31:51.705Z,1.22
2023-02-11T22:34:19.878Z,1.21
2023-02-11T22:36:48.195Z,1.14
2023-02-11T22:39:17.845Z,1.13
2023-02-11T22:41:47.682Z,1.21
2023-02-11T22:44:16.501Z,1.27
2023-02-11T22:46:44.984Z,1.24
2023-02-11T22:49:16.009Z,0.79
2023-02-11T22:51:44.582Z,1.11
2023-02-11T22:54:16.227Z,1.22
2023-02-11T22:56:44.866Z,1.23
2023-02-11T22:59:14.995Z,1.30
2023-02-11T23:01:43.881Z,1.29
2023-02-11T23:04:17.037Z,1.32
2023-02-11T23:06:47.570Z,1.34
2023-02-11T23:09:16.176Z,1.46
2023-02-11T23:11:44.335Z,1.36
2023-02-11T23:14:12.750Z,1.18
2023-02-11T23:16:41.427Z,1.12
2023-02-11T23:19:12.448Z,0.98
2023-02-11T23:21:42.189Z,1.13
2023-02-11T23:24:13.378Z,0.98
2023-02-11T23:26:42.361Z,1.13
2023-02-11T23:29:11.149Z,1.17
2023-02-11T23:31:43.141Z,1.26
2023-02-11T23:34:11.578Z,1.29
2023-02-11T23:36:41.368Z,1.37
2023-02-11T23:39:09.502Z,1.32
2023-02-11T23:41:37.729Z,1.24
2023-02-11T23:44:06.125Z,1.21
2023-02-11T23:46:34.272Z,1.17
2023-02-11T23:49:02.383Z,1.12
2023-02-11T23:51:30.555Z,1.02
2023-02-11T23:54:00.203Z,1.06
2023-02-11T23:56:29.301Z,0.93
2023-02-11T23:58:59.444Z,1.40
